createdAt,value
2022-10-29T00:00:31.047Z,93.87
2022-10-29T00:01:34.080Z,93.66
2022-10-29T00:02:36.960Z,92.57
2022-10-29T00:03:40.297Z,93.22
2022-10-29T00:04:43.585Z,96.22
2022-10-29T00:05:48.493Z,94.37
2022-10-29T00:06:51.785Z,93.64
2022-10-29T00:07:55.063Z,92.17
2022-10-29T00:08:58.552Z,92.12
2022-10-29T00:10:01.436Z,92.39
2022-10-29T00:11:04.346Z,92.29
2022-10-29T00:12:07.802Z,95.07
2022-10-29T00:13:10.845Z,92.08
2022-10-29T00:14:14.054Z,95.13
2022-10-29T00:15:16.827Z,95.64
2022-10-29T00:16:19.928Z,92.24
2022-10-29T00:17:22.579Z,92.63
2022-10-29T00:18:25.856Z,93.47
2022-10-29T00:19:29.139Z,91.44
2022-10-29T00:20:31.865Z,90.71
2022-10-29T00:21:34.824Z,90.87
2022-10-29T00:22:37.884Z,90.61
2022-10-29T00:23:41.165Z,91.17
2022-10-29T00:24:44.239Z,90.86
2022-10-29T00:25:47.518Z,90.63
2022-10-29T00:26:50.593Z,90.41
2022-10-29T00:27:53.774Z,90.48
2022-10-29T00:28:56.650Z,90.86
2022-10-29T00:29:59.316Z,89.48
2022-10-29T00:31:02.193Z,89.98
2022-10-29T00:32:05.298Z,90.72
2022-10-29T00:33:08.492Z,90.36
2022-10-29T00:34:11.234Z,89.77
2022-10-29T00:35:14.323Z,90.80
2022-10-29T00:36:17.279Z,90.44
2022-10-29T00:37:20.470Z,89.33
2022-10-29T00:38:23.198Z,89.72
2022-10-29T00:39:26.063Z,90.05
2022-10-29T00:40:29.398Z,90.38
2022-10-29T00:41:32.588Z,90.05
2022-10-29T00:42:35.664Z,91.25
2022-10-29T00:43:38.539Z,90.23
2022-10-29T00:44:41.205Z,88.86
2022-10-29T00:45:44.185Z,90.16
2022-10-29T00:46:47.365Z,88.73
2022-10-29T00:47:50.868Z,89.66
2022-10-29T00:48:53.732Z,89.38
2022-10-29T00:49:56.932Z,90.28
2022-10-29T00:50:59.888Z,89.75
2022-10-29T00:52:03.287Z,89.41
2022-10-29T00:53:06.662Z,90.73
2022-10-29T00:54:09.642Z,90.43
2022-10-29T00:55:12.512Z,90.04
2022-10-29T00:56:15.794Z,90.53
2022-10-29T00:57:18.733Z,89.49
2022-10-29T00:58:21.746Z,89.81
2022-10-29T00:59:24.369Z,89.58
2022-10-29T01:00:27.807Z,88.18
2022-10-29T01:01:30.829Z,88.60
2022-10-29T01:02:34.082Z,88.44
2022-10-29T01:03:37.354Z,88.84
2022-10-29T01:04:40.136Z,89.94
2022-10-29T01:05:43.306Z,89.89
2022-10-29T01:06:46.916Z,88.87
2022-10-29T01:07:49.476Z,88.80
2022-10-29T01:08:52.748Z,88.28
2022-10-29T01:09:55.422Z,88.84
2022-10-29T01:10:58.207Z,88.17
2022-10-29T01:12:01.470Z,89.08
2022-10-29T01:13:04.921Z,87.88
2022-10-29T01:14:09.277Z,87.52
2022-10-29T01:15:12.350Z,87.56
2022-10-29T01:16:16.166Z,86.78
2022-10-29T01:17:19.031Z,87.58
2022-10-29T01:18:22.210Z,87.48
2022-10-29T01:19:25.596Z,86.83
2022-10-29T01:20:28.777Z,86.95
2022-10-29T01:21:33.284Z,87.14
2022-10-29T01:22:36.266Z,86.16
2022-10-29T01:23:39.255Z,86.47
2022-10-29T01:24:42.737Z,87.07
2022-10-29T01:25:46.424Z,87.53
2022-10-29T01:26:49.715Z,88.03
2022-10-29T01:27:52.902Z,87.89
2022-10-29T01:28:56.255Z,87.06
2022-10-29T01:29:59.362Z,88.07
2022-10-29T01:31:02.339Z,86.32
2022-10-29T01:32:05.410Z,86.99
2022-10-29T01:33:08.384Z,87.23
2022-10-29T01:34:11.681Z,86.71
2022-10-29T01:35:15.476Z,86.54
2022-10-29T01:36:18.459Z,86.58
2022-10-29T01:37:21.741Z,86.89
2022-10-29T01:38:24.807Z,86.43
2022-10-29T01:39:27.586Z,86.49
2022-10-29T01:40:30.487Z,88.44
2022-10-29T01:41:33.453Z,86.77
2022-10-29T01:42:36.514Z,86.64
2022-10-29T01:43:39.826Z,88.66
2022-10-29T01:44:43.094Z,86.45
2022-10-29T01:45:46.261Z,86.10
2022-10-29T01:46:49.144Z,86.04
2022-10-29T01:47:51.814Z,85.65
2022-10-29T01:48:54.678Z,86.11
2022-10-29T01:49:57.456Z,87.73
2022-10-29T01:51:01.050Z,85.89
2022-10-29T01:52:04.743Z,85.51
2022-10-29T01:53:08.045Z,85.18
2022-10-29T01:54:11.203Z,85.72
2022-10-29T01:55:14.283Z,86.14
2022-10-29T01:56:17.389Z,85.50
2022-10-29T01:57:20.238Z,85.75
2022-10-29T01:58:23.115Z,84.86
2022-10-29T01:59:36.183Z,86.44
2022-10-29T02:00:30.873Z,86.11
2022-10-29T02:01:34.049Z,85.76
2022-10-29T02:03:53.262Z,86.96
2022-10-29T02:04:56.032Z,86.77
2022-10-29T02:05:58.912Z,84.99
2022-10-29T02:07:01.796Z,85.27
2022-10-29T02:08:05.065Z,84.48
2022-10-29T02:09:08.249Z,83.85
2022-10-29T02:10:11.113Z,84.30
2022-10-29T02:11:14.206Z,82.92
2022-10-29T02:12:17.389Z,83.53
2022-10-29T02:13:20.209Z,84.25
2022-10-29T02:14:23.733Z,83.64
2022-10-29T02:15:26.616Z,83.87
2022-10-29T02:16:29.396Z,84.65
2022-10-29T02:17:32.874Z,84.57
2022-10-29T02:18:35.856Z,85.35
2022-10-29T02:19:39.034Z,86.50
2022-10-29T02:20:41.915Z,84.88
2022-10-29T02:21:44.786Z,84.99
2022-10-29T02:22:47.875Z,84.67
2022-10-29T02:23:51.654Z,85.29
2022-10-29T02:24:54.539Z,85.26
2022-10-29T02:25:57.968Z,85.13
2022-10-29T02:27:00.903Z,85.35
2022-10-29T02:28:04.795Z,86.78
2022-10-29T02:29:08.659Z,85.94
2022-10-29T02:30:11.677Z,85.48
2022-10-29T02:31:14.954Z,85.70
2022-10-29T02:32:17.836Z,87.42
2022-10-29T02:33:21.123Z,88.21
2022-10-29T02:34:24.097Z,87.45
2022-10-29T02:35:27.184Z,86.05
2022-10-29T02:36:29.745Z,86.09
2022-10-29T02:37:32.313Z,87.04
2022-10-29T02:38:35.520Z,85.87
2022-10-29T02:39:38.684Z,85.16
2022-10-29T02:40:41.755Z,86.25
2022-10-29T02:41:44.341Z,86.79
2022-10-29T02:42:47.291Z,85.79
2022-10-29T02:43:50.992Z,88.33
2022-10-29T02:44:54.388Z,86.21
2022-10-29T02:45:57.319Z,86.86
2022-10-29T02:47:00.034Z,85.79
2022-10-29T02:48:02.691Z,85.58
2022-10-29T02:49:06.074Z,86.25
2022-10-29T02:50:08.955Z,86.71
2022-10-29T02:51:11.873Z,85.51
2022-10-29T02:52:14.907Z,84.76
2022-10-29T02:53:17.805Z,87.51
2022-10-29T02:54:20.966Z,85.10
2022-10-29T02:55:24.364Z,87.07
2022-10-29T02:56:27.019Z,86.60
2022-10-29T02:57:30.528Z,89.39
2022-10-29T02:58:33.491Z,86.05
2022-10-29T02:59:36.484Z,84.87
2022-10-29T03:00:39.257Z,84.66
2022-10-29T03:01:42.094Z,86.56
2022-10-29T03:02:45.551Z,85.35
2022-10-29T03:03:48.474Z,84.98
2022-10-29T03:04:51.176Z,83.66
2022-10-29T03:05:54.117Z,83.95
2022-10-29T03:06:57.200Z,86.18
2022-10-29T03:07:59.989Z,83.78
2022-10-29T03:09:02.859Z,84.58
2022-10-29T03:10:05.844Z,86.33
2022-10-29T03:11:08.620Z,83.99
2022-10-29T03:12:11.262Z,85.38
2022-10-29T03:13:14.140Z,84.73
2022-10-29T03:14:16.909Z,84.85
2022-10-29T03:15:20.815Z,84.36
2022-10-29T03:16:23.475Z,84.57
2022-10-29T03:17:26.662Z,84.92
2022-10-29T03:18:29.441Z,84.80
2022-10-29T03:19:32.517Z,84.22
2022-10-29T03:20:35.802Z,83.73
2022-10-29T03:21:38.673Z,85.08
2022-10-29T03:22:41.544Z,87.17
2022-10-29T03:23:44.542Z,86.18
2022-10-29T03:24:47.712Z,84.22
2022-10-29T03:25:55.513Z,84.56
2022-10-29T03:26:55.954Z,84.64
2022-10-29T03:27:59.464Z,84.22
2022-10-29T03:29:02.384Z,84.17
2022-10-29T03:30:05.603Z,84.67
2022-10-29T03:31:08.850Z,85.40
2022-10-29T03:32:12.033Z,85.05
2022-10-29T03:33:15.525Z,85.03
2022-10-29T03:34:18.267Z,84.48
2022-10-29T03:35:21.578Z,83.62
2022-10-29T03:36:25.286Z,84.00
2022-10-29T03:37:28.756Z,83.10
2022-10-29T03:38:31.831Z,83.83
2022-10-29T03:39:34.717Z,84.19
2022-10-29T03:40:37.898Z,82.17
2022-10-29T03:41:42.520Z,82.03
2022-10-29T03:42:45.286Z,82.33
2022-10-29T03:43:49.326Z,82.96
2022-10-29T03:44:52.464Z,82.30
2022-10-29T03:45:55.652Z,83.19
2022-10-29T03:46:58.522Z,82.57
2022-10-29T03:48:01.293Z,84.59
2022-10-29T03:49:04.485Z,82.79
2022-10-29T03:50:07.552Z,83.46
2022-10-29T03:51:10.231Z,83.17
2022-10-29T03:52:13.199Z,83.14
2022-10-29T03:53:16.138Z,82.70
2022-10-29T03:54:19.050Z,82.49
2022-10-29T03:55:22.056Z,82.23
2022-10-29T03:56:26.850Z,82.95
2022-10-29T03:57:30.237Z,81.64
2022-10-29T03:58:32.996Z,81.70
2022-10-29T03:59:35.877Z,81.63
2022-10-29T04:00:39.069Z,81.65
2022-10-29T04:01:42.203Z,82.65
2022-10-29T04:02:45.266Z,82.00
2022-10-29T04:03:48.105Z,82.19
2022-10-29T04:04:50.766Z,81.95
2022-10-29T04:05:53.428Z,81.63
2022-10-29T04:06:56.624Z,82.41
2022-10-29T04:08:00.417Z,80.72
2022-10-29T04:09:03.288Z,81.03
2022-10-29T04:10:06.060Z,81.24
2022-10-29T04:11:08.732Z,80.29
2022-10-29T04:12:11.710Z,80.65
2022-10-29T04:13:14.897Z,80.89
2022-10-29T04:14:17.974Z,81.81
2022-10-29T04:15:21.363Z,81.15
2022-10-29T04:16:24.655Z,80.92
2022-10-29T04:17:27.523Z,80.65
2022-10-29T04:18:30.598Z,79.65
2022-10-29T04:19:33.463Z,81.72
2022-10-29T04:20:54.297Z,80.63
2022-10-29T04:27:07.884Z,80.70
2022-10-29T04:28:42.397Z,80.08
2022-10-29T04:29:16.028Z,80.48
2022-10-29T04:30:18.699Z,80.12
2022-10-29T04:31:21.916Z,80.22
2022-10-29T04:32:24.558Z,79.33
2022-10-29T04:33:27.643Z,80.05
2022-10-29T04:34:30.608Z,79.91
2022-10-29T04:35:33.212Z,80.73
2022-10-29T04:36:36.051Z,81.17
2022-10-29T04:37:38.814Z,79.88
2022-10-29T04:38:42.107Z,79.41
2022-10-29T04:39:45.190Z,79.33
2022-10-29T04:40:48.073Z,79.95
2022-10-29T04:41:50.925Z,80.00
2022-10-29T04:42:54.327Z,80.38
2022-10-29T04:43:57.297Z,80.66
2022-10-29T04:45:00.116Z,79.96
2022-10-29T04:46:03.177Z,80.88
2022-10-29T04:47:06.447Z,79.50
2022-10-29T04:48:16.913Z,80.08
2022-10-29T04:49:19.828Z,80.07
2022-10-29T04:50:22.856Z,79.93
2022-10-29T04:51:26.137Z,80.26
2022-10-29T04:52:29.313Z,80.22
2022-10-29T04:53:31.954Z,81.53
2022-10-29T04:54:34.849Z,81.14
2022-10-29T04:55:37.997Z,79.67
2022-10-29T04:56:41.008Z,80.69
2022-10-29T04:57:44.684Z,79.88
2022-10-29T04:58:47.696Z,80.50
2022-10-29T04:59:52.121Z,81.60
2022-10-29T05:00:55.443Z,81.05
2022-10-29T05:01:58.458Z,81.57
2022-10-29T05:03:01.547Z,82.07
2022-10-29T05:04:04.424Z,80.85
2022-10-29T05:05:07.287Z,81.71
2022-10-29T05:06:10.255Z,82.38
2022-10-29T05:07:13.036Z,83.09
2022-10-29T05:08:16.555Z,83.25
2022-10-29T05:09:19.295Z,82.82
2022-10-29T05:10:22.165Z,82.35
2022-10-29T05:11:25.347Z,84.07
2022-10-29T05:12:28.637Z,82.92
2022-10-29T05:13:32.448Z,83.65
2022-10-29T05:14:35.110Z,82.76
2022-10-29T05:15:37.972Z,82.14
2022-10-29T05:16:40.755Z,81.28
2022-10-29T05:17:43.524Z,80.91
2022-10-29T05:18:46.493Z,82.43
2022-10-29T05:19:49.585Z,80.65
2022-10-29T05:20:52.662Z,81.39
2022-10-29T05:21:55.542Z,81.00
2022-10-29T05:22:58.854Z,81.14
2022-10-29T05:24:01.581Z,81.84
2022-10-29T05:25:04.327Z,81.27
2022-10-29T05:26:07.231Z,81.74
2022-10-29T05:27:10.626Z,81.35
2022-10-29T05:28:13.609Z,81.30
2022-10-29T05:29:17.193Z,82.38
2022-10-29T05:30:20.229Z,81.66
2022-10-29T05:31:22.938Z,81.60
2022-10-29T05:32:25.977Z,82.14
2022-10-29T05:33:28.790Z,81.42
2022-10-29T05:34:31.571Z,82.11
2022-10-29T05:35:34.338Z,82.17
2022-10-29T05:36:37.315Z,82.12
2022-10-29T05:37:40.420Z,82.17
2022-10-29T05:38:43.261Z,81.82
2022-10-29T05:39:46.340Z,81.98
2022-10-29T05:40:49.420Z,82.17
2022-10-29T05:41:52.418Z,81.63
2022-10-29T05:42:55.005Z,82.54
2022-10-29T05:43:57.650Z,82.46
2022-10-29T05:45:00.716Z,83.05
2022-10-29T05:46:03.495Z,83.74
2022-10-29T05:47:06.466Z,84.44
2022-10-29T05:48:09.537Z,85.64
2022-10-29T05:49:12.935Z,84.95
2022-10-29T05:50:16.114Z,85.05
2022-10-29T05:51:19.094Z,85.58
2022-10-29T05:52:21.964Z,85.58
2022-10-29T05:53:24.842Z,85.95
2022-10-29T05:54:27.831Z,86.33
2022-10-29T05:55:30.901Z,86.00
2022-10-29T05:56:34.304Z,86.31
2022-10-29T05:57:37.477Z,86.75
2022-10-29T05:58:40.664Z,86.81
2022-10-29T05:59:44.038Z,87.31
2022-10-29T06:00:47.334Z,86.40
2022-10-29T06:01:51.212Z,86.31
2022-10-29T06:02:54.314Z,86.26
2022-10-29T06:03:57.281Z,86.68
2022-10-29T06:05:00.158Z,86.87
2022-10-29T06:06:03.184Z,86.85
2022-10-29T06:07:06.209Z,87.21
2022-10-29T06:08:09.180Z,87.22
2022-10-29T06:09:12.481Z,87.69
2022-10-29T06:10:15.240Z,87.21
2022-10-29T06:11:18.009Z,87.45
2022-10-29T06:12:20.790Z,87.34
2022-10-29T06:13:24.169Z,87.70
2022-10-29T06:14:28.584Z,88.21
2022-10-29T06:15:31.358Z,88.08
2022-10-29T06:16:34.640Z,88.46
2022-10-29T06:17:37.717Z,87.98
2022-10-29T06:18:41.419Z,87.99
2022-10-29T06:19:44.175Z,89.43
2022-10-29T06:20:46.954Z,88.01
2022-10-29T06:21:50.465Z,87.20
2022-10-29T06:22:53.545Z,87.69
2022-10-29T06:23:57.121Z,87.85
2022-10-29T06:25:00.115Z,87.11
2022-10-29T06:26:02.968Z,87.91
2022-10-29T06:27:05.942Z,86.74
2022-10-29T06:28:09.023Z,86.82
2022-10-29T06:29:12.007Z,86.36
2022-10-29T06:30:14.770Z,86.43
2022-10-29T06:31:17.680Z,86.63
2022-10-29T06:32:20.730Z,87.21
2022-10-29T06:33:23.606Z,87.42
2022-10-29T06:34:26.775Z,87.88
2022-10-29T06:35:30.319Z,87.88
2022-10-29T06:36:33.455Z,88.15
2022-10-29T06:37:36.339Z,88.32
2022-10-29T06:38:39.621Z,88.99
2022-10-29T06:39:42.490Z,88.15
2022-10-29T06:40:51.720Z,88.21
2022-10-29T06:41:54.580Z,87.90
2022-10-29T06:42:57.657Z,87.90
2022-10-29T06:44:00.543Z,87.53
2022-10-29T06:45:03.722Z,87.80
2022-10-29T06:46:06.894Z,87.25
2022-10-29T06:47:11.101Z,87.82
2022-10-29T06:48:17.775Z,87.72
2022-10-29T06:49:18.397Z,87.43
2022-10-29T06:50:21.299Z,87.15
2022-10-29T06:51:24.356Z,87.01
2022-10-29T06:52:27.342Z,87.15
2022-10-29T06:53:30.516Z,87.58
2022-10-29T06:54:33.592Z,86.95
2022-10-29T06:55:36.293Z,87.60
2022-10-29T06:56:40.872Z,87.66
2022-10-29T06:57:47.731Z,87.65
2022-10-29T06:58:50.823Z,87.57
2022-10-29T06:59:53.898Z,87.29
2022-10-29T07:02:01.818Z,87.66
2022-10-29T07:03:05.310Z,87.51
2022-10-29T07:04:08.893Z,87.47
2022-10-29T07:05:11.865Z,87.78
2022-10-29T07:06:14.525Z,86.56
2022-10-29T07:07:17.152Z,86.89
2022-10-29T07:08:20.077Z,87.58
2022-10-29T07:09:23.071Z,87.53
2022-10-29T07:10:26.089Z,87.03
2022-10-29T07:11:29.212Z,86.91
2022-10-29T07:12:32.595Z,87.45
2022-10-29T07:13:35.569Z,87.62
2022-10-29T07:14:38.836Z,87.59
2022-10-29T07:15:41.734Z,87.73
2022-10-29T07:16:45.187Z,86.96
2022-10-29T07:17:48.134Z,86.80
2022-10-29T07:18:51.267Z,87.29
2022-10-29T07:19:54.041Z,87.14
2022-10-29T07:20:57.326Z,87.23
2022-10-29T07:22:00.230Z,86.91
2022-10-29T07:23:03.383Z,87.02
2022-10-29T07:24:06.480Z,87.66
2022-10-29T07:25:09.651Z,87.18
2022-10-29T07:26:13.140Z,87.77
2022-10-29T07:27:15.977Z,87.27
2022-10-29T07:28:25.701Z,87.38
2022-10-29T07:29:28.522Z,87.23
2022-10-29T07:30:35.817Z,87.51
2022-10-29T07:31:38.877Z,87.23
2022-10-29T07:32:44.817Z,87.36
2022-10-29T07:33:47.899Z,87.50
2022-10-29T07:34:51.295Z,87.34
2022-10-29T07:35:54.279Z,87.68
2022-10-29T07:36:57.458Z,87.79
2022-10-29T07:38:08.769Z,87.94
2022-10-29T07:39:09.653Z,87.88
2022-10-29T07:40:12.848Z,88.56
2022-10-29T07:41:15.697Z,88.23
2022-10-29T07:42:18.785Z,88.79
2022-10-29T07:43:22.686Z,88.76
2022-10-29T07:45:44.365Z,88.55
2022-10-29T07:46:47.501Z,87.66
2022-10-29T07:47:50.621Z,87.98
2022-10-29T07:48:53.868Z,87.82
2022-10-29T07:50:03.406Z,87.67
2022-10-29T07:51:06.556Z,87.69
2022-10-29T07:52:09.580Z,87.53
2022-10-29T07:53:15.693Z,87.88
2022-10-29T07:54:18.783Z,88.24
2022-10-29T07:55:22.111Z,88.15
2022-10-29T07:56:25.136Z,87.80
2022-10-29T07:57:28.053Z,87.67
2022-10-29T07:58:30.975Z,88.25
2022-10-29T07:59:33.976Z,88.44
2022-10-29T08:00:37.182Z,87.49
2022-10-29T08:01:40.315Z,87.56
2022-10-29T08:02:43.202Z,87.93
2022-10-29T08:03:46.125Z,87.71
2022-10-29T08:04:57.865Z,87.94
2022-10-29T08:06:01.342Z,87.41
2022-10-29T08:07:04.633Z,87.39
2022-10-29T08:08:08.437Z,87.50
2022-10-29T08:09:11.104Z,87.62
2022-10-29T08:10:13.902Z,87.95
2022-10-29T08:11:17.563Z,88.54
2022-10-29T08:12:20.856Z,87.70
2022-10-29T08:13:23.926Z,88.28
2022-10-29T08:14:27.426Z,87.84
2022-10-29T08:15:30.274Z,88.23
2022-10-29T08:16:33.362Z,88.09
2022-10-29T08:17:38.507Z,88.24
2022-10-29T08:18:41.572Z,87.83
2022-10-29T08:19:44.563Z,88.48
2022-10-29T08:20:47.635Z,87.83
2022-10-29T08:21:50.720Z,88.03
2022-10-29T08:22:54.370Z,87.59
2022-10-29T08:23:57.793Z,88.01
2022-10-29T08:25:00.685Z,88.15
2022-10-29T08:26:04.159Z,87.85
2022-10-29T08:27:07.951Z,87.72
2022-10-29T08:28:10.598Z,87.55
2022-10-29T08:29:14.138Z,87.97
2022-10-29T08:30:17.189Z,88.44
2022-10-29T08:31:20.244Z,88.70
2022-10-29T08:32:23.456Z,88.15
2022-10-29T08:33:26.213Z,87.58
2022-10-29T08:34:29.313Z,87.80
2022-10-29T08:35:33.099Z,87.93
2022-10-29T08:36:36.484Z,88.50
2022-10-29T08:37:40.290Z,88.00
2022-10-29T08:38:43.473Z,88.47
2022-10-29T08:39:46.857Z,88.25
2022-10-29T08:40:49.843Z,88.38
2022-10-29T08:41:52.916Z,88.24
2022-10-29T08:42:57.181Z,88.62
2022-10-29T08:44:00.111Z,88.53
2022-10-29T08:45:02.865Z,88.85
2022-10-29T08:46:05.948Z,88.89
2022-10-29T08:47:08.918Z,88.85
2022-10-29T08:48:13.235Z,89.34
2022-10-29T08:49:16.309Z,88.95
2022-10-29T08:50:20.565Z,88.93
2022-10-29T08:51:23.396Z,89.22
2022-10-29T08:52:27.284Z,89.33
2022-10-29T08:53:33.712Z,89.88
2022-10-29T08:54:35.377Z,89.70
2022-10-29T08:55:38.783Z,89.46
2022-10-29T08:56:42.204Z,89.86
2022-10-29T08:57:45.353Z,89.63
2022-10-29T08:58:47.828Z,89.78
2022-10-29T08:59:50.790Z,89.94
2022-10-29T09:00:53.889Z,90.16
2022-10-29T09:01:57.251Z,90.61
2022-10-29T09:03:00.545Z,90.16
2022-10-29T09:04:04.238Z,90.78
2022-10-29T09:05:07.102Z,90.56
2022-10-29T09:06:10.195Z,90.76
2022-10-29T09:07:13.284Z,90.83
2022-10-29T09:08:16.757Z,90.99
2022-10-29T09:09:19.941Z,90.91
2022-10-29T09:10:22.708Z,90.61
2022-10-29T09:11:25.485Z,90.88
2022-10-29T09:12:28.100Z,91.46
2022-10-29T09:13:30.681Z,91.10
2022-10-29T09:14:33.485Z,90.93
2022-10-29T09:15:36.503Z,91.04
2022-10-29T09:17:42.139Z,90.94
2022-10-29T09:18:45.163Z,91.05
2022-10-29T09:19:48.278Z,91.50
2022-10-29T09:20:51.465Z,91.48
2022-10-29T09:21:54.736Z,91.61
2022-10-29T09:22:58.148Z,92.00
2022-10-29T09:24:01.256Z,92.14
2022-10-29T09:25:04.292Z,91.92
2022-10-29T09:26:07.275Z,91.79
2022-10-29T09:27:10.907Z,91.79
2022-10-29T09:28:14.269Z,92.59
2022-10-29T09:29:20.903Z,92.54
2022-10-29T09:30:24.303Z,92.61
2022-10-29T09:31:32.163Z,92.57
2022-10-29T09:32:35.365Z,92.56
2022-10-29T09:33:38.612Z,92.62
2022-10-29T09:34:42.138Z,92.99
2022-10-29T09:35:45.430Z,92.94
2022-10-29T09:36:49.029Z,92.97
2022-10-29T09:37:52.204Z,93.29
2022-10-29T09:38:55.077Z,93.67
2022-10-29T09:40:00.811Z,92.90
2022-10-29T09:41:03.698Z,92.94
2022-10-29T09:42:06.547Z,92.59
2022-10-29T09:43:09.447Z,92.82
2022-10-29T09:44:12.526Z,92.97
2022-10-29T09:45:17.232Z,93.12
2022-10-29T09:46:21.246Z,93.39
2022-10-29T09:47:25.506Z,93.60
2022-10-29T09:48:28.525Z,93.58
2022-10-29T09:49:31.904Z,93.68
2022-10-29T09:50:38.166Z,93.57
2022-10-29T09:51:41.858Z,93.65
2022-10-29T09:52:45.138Z,93.40
2022-10-29T09:53:49.550Z,93.61
2022-10-29T09:54:52.732Z,93.97
2022-10-29T09:55:55.914Z,94.28
2022-10-29T09:57:03.296Z,94.43
2022-10-29T09:58:06.072Z,94.47
2022-10-29T09:59:10.722Z,94.60
2022-10-29T10:00:13.588Z,94.60
2022-10-29T10:01:16.716Z,94.28
2022-10-29T10:02:19.936Z,94.61
2022-10-29T10:03:25.353Z,94.52
2022-10-29T10:04:36.762Z,95.01
2022-10-29T10:05:46.215Z,94.43
2022-10-29T10:06:54.260Z,94.40
2022-10-29T10:07:57.784Z,94.68
2022-10-29T10:09:00.674Z,95.39
2022-10-29T10:10:03.895Z,95.20
2022-10-29T10:11:07.496Z,94.86
2022-10-29T10:12:10.786Z,94.90
2022-10-29T10:13:17.054Z,94.80
2022-10-29T10:14:21.752Z,94.71
2022-10-29T10:15:25.577Z,94.91
2022-10-29T10:16:28.232Z,94.82
2022-10-29T10:17:31.300Z,94.81
2022-10-29T10:18:35.227Z,95.11
2022-10-29T10:19:38.793Z,94.62
2022-10-29T10:20:41.666Z,94.66
2022-10-29T10:21:45.250Z,94.85
2022-10-29T10:22:47.921Z,95.39
2022-10-29T10:23:51.884Z,95.11
2022-10-29T10:24:55.209Z,95.40
2022-10-29T10:26:02.111Z,95.50
2022-10-29T10:27:03.544Z,94.94
2022-10-29T10:28:07.415Z,95.17
2022-10-29T10:29:10.815Z,95.08
2022-10-29T10:30:14.609Z,95.19
2022-10-29T10:31:19.346Z,95.04
2022-10-29T10:32:22.196Z,94.93
2022-10-29T10:33:39.595Z,95.13
2022-10-29T10:34:45.242Z,95.10
2022-10-29T10:35:55.709Z,95.40
2022-10-29T10:36:59.142Z,95.99
2022-10-29T10:39:23.302Z,95.91
2022-10-29T10:40:28.387Z,95.66
2022-10-29T10:41:36.290Z,95.49
2022-10-29T10:42:39.126Z,95.80
2022-10-29T10:43:42.748Z,96.35
2022-10-29T10:44:46.875Z,96.50
2022-10-29T10:45:50.660Z,96.59
2022-10-29T10:46:53.642Z,96.79
2022-10-29T10:47:57.183Z,96.79
2022-10-29T10:49:01.736Z,96.70
2022-10-29T10:50:04.665Z,96.40
2022-10-29T10:51:07.790Z,96.22
2022-10-29T10:52:12.012Z,96.22
2022-10-29T10:53:23.725Z,96.22
2022-10-29T10:54:27.822Z,96.21
2022-10-29T10:55:31.327Z,96.80
2022-10-29T10:56:34.501Z,96.43
2022-10-29T10:57:38.655Z,96.67
2022-10-29T10:58:42.476Z,96.46
2022-10-29T10:59:46.842Z,96.63
2022-10-29T11:00:49.688Z,96.73
2022-10-29T11:01:54.326Z,96.68
2022-10-29T11:02:57.521Z,97.27
2022-10-29T11:04:00.886Z,96.78
2022-10-29T11:05:07.798Z,97.19
2022-10-29T11:06:09.233Z,97.10
2022-10-29T11:07:12.533Z,97.02
2022-10-29T11:08:15.854Z,97.10
2022-10-29T11:09:19.908Z,97.31
2022-10-29T11:10:23.310Z,97.34
2022-10-29T11:11:27.507Z,97.38
2022-10-29T11:12:30.906Z,97.36
2022-10-29T11:13:38.277Z,97.48
2022-10-29T11:14:41.209Z,97.76
2022-10-29T11:15:44.234Z,98.02
2022-10-29T11:16:46.875Z,98.17
2022-10-29T11:17:57.166Z,98.31
2022-10-29T11:19:02.264Z,98.45
2022-10-29T11:20:05.936Z,98.20
2022-10-29T11:21:09.557Z,98.27
2022-10-29T11:22:12.819Z,98.87
2022-10-29T11:23:16.322Z,99.64
2022-10-29T11:24:19.304Z,99.76
2022-10-29T11:25:22.074Z,100.00
2022-10-29T11:26:25.793Z,100.00
2022-10-29T11:27:29.265Z,99.86
2022-10-29T11:28:32.647Z,99.74
2022-10-29T11:29:35.416Z,99.72
2022-10-29T11:30:38.234Z,99.96
2022-10-29T11:31:43.931Z,100.00
2022-10-29T11:32:47.635Z,100.00
2022-10-29T11:33:50.287Z,99.96
2022-10-29T11:34:53.269Z,99.82
2022-10-29T11:35:58.856Z,99.99
2022-10-29T11:37:00.194Z,99.83
2022-10-29T11:38:03.334Z,100.00
2022-10-29T11:39:06.536Z,100.00
2022-10-29T11:40:09.686Z,100.00
2022-10-29T11:41:13.215Z,100.00
2022-10-29T11:42:16.375Z,100.00
2022-10-29T11:43:19.356Z,100.00
2022-10-29T11:44:23.133Z,100.00
2022-10-29T11:45:25.908Z,100.00
2022-10-29T11:46:28.589Z,100.00
2022-10-29T11:47:31.364Z,100.00
2022-10-29T11:48:38.219Z,100.00
2022-10-29T11:49:44.696Z,100.00
2022-10-29T11:50:59.228Z,100.00
2022-10-29T11:52:02.428Z,100.00
2022-10-29T11:53:05.684Z,100.00
2022-10-29T11:54:09.080Z,100.00
2022-10-29T11:55:12.685Z,100.00
2022-10-29T11:56:16.051Z,100.00
2022-10-29T11:57:19.460Z,100.00
2022-10-29T11:58:22.629Z,100.00
2022-10-29T11:59:26.525Z,100.00
2022-10-29T12:00:30.436Z,100.00
2022-10-29T12:01:34.734Z,100.00
2022-10-29T12:02:37.705Z,100.00
2022-10-29T12:03:40.714Z,100.00
2022-10-29T12:04:43.569Z,100.00
2022-10-29T12:05:46.990Z,100.00
2022-10-29T12:06:50.052Z,100.00
2022-10-29T12:07:53.479Z,100.00
2022-10-29T12:08:56.309Z,100.00
2022-10-29T12:09:58.964Z,100.00
2022-10-29T12:11:01.706Z,100.00
2022-10-29T12:12:04.815Z,100.00
2022-10-29T12:13:07.383Z,100.00
2022-10-29T12:14:10.467Z,100.00
2022-10-29T12:15:13.537Z,100.00
2022-10-29T12:16:16.729Z,100.00
2022-10-29T12:17:20.079Z,100.00
2022-10-29T12:18:23.339Z,100.00
2022-10-29T12:19:26.985Z,100.00
2022-10-29T12:20:30.878Z,100.00
2022-10-29T12:21:34.779Z,100.00
2022-10-29T12:22:38.069Z,100.00
2022-10-29T12:23:41.233Z,100.00
2022-10-29T12:24:44.019Z,100.00
2022-10-29T12:25:46.685Z,100.00
2022-10-29T12:26:49.973Z,100.00
2022-10-29T12:27:53.052Z,100.00
2022-10-29T12:28:57.050Z,100.00
2022-10-29T12:30:00.338Z,100.00
2022-10-29T12:31:03.624Z,100.00
2022-10-29T12:32:06.703Z,100.00
2022-10-29T12:33:09.983Z,100.00
2022-10-29T12:34:13.059Z,100.00
2022-10-29T12:35:15.915Z,100.00
2022-10-29T12:36:19.221Z,100.00
2022-10-29T12:37:22.618Z,100.00
2022-10-29T12:38:25.687Z,100.00
2022-10-29T12:39:28.768Z,100.00
2022-10-29T12:40:31.947Z,100.00
2022-10-29T12:41:35.030Z,100.00
2022-10-29T12:42:39.033Z,100.00
2022-10-29T12:43:42.107Z,100.00
2022-10-29T12:44:45.612Z,100.00
2022-10-29T12:46:14.373Z,100.00
2022-10-29T12:46:53.306Z,100.00
2022-10-29T12:47:56.654Z,100.00
2022-10-29T12:49:00.169Z,100.00
2022-10-29T12:50:03.927Z,100.00
2022-10-29T12:51:06.848Z,100.00
2022-10-29T12:52:10.023Z,100.00
2022-10-29T12:53:13.099Z,100.00
2022-10-29T12:54:16.710Z,100.00
2022-10-29T12:55:20.865Z,100.00
2022-10-29T12:56:23.786Z,100.00
2022-10-29T12:57:27.462Z,100.00
2022-10-29T12:58:30.951Z,100.00
2022-10-29T12:59:34.541Z,100.00
2022-10-29T13:00:37.638Z,100.00
2022-10-29T13:02:45.275Z,100.00
2022-10-29T13:03:48.606Z,100.00
2022-10-29T13:04:51.375Z,100.00
2022-10-29T13:05:54.677Z,100.00
2022-10-29T13:06:57.745Z,100.00
2022-10-29T13:08:03.921Z,100.00
2022-10-29T13:09:07.478Z,100.00
2022-10-29T13:10:10.656Z,100.00
2022-10-29T13:11:14.137Z,100.00
2022-10-29T13:12:18.443Z,100.00
2022-10-29T13:13:22.141Z,100.00
2022-10-29T13:14:25.432Z,100.00
2022-10-29T13:15:28.603Z,100.00
2022-10-29T13:16:31.903Z,100.00
2022-10-29T13:17:35.582Z,100.00
2022-10-29T13:18:41.769Z,100.00
2022-10-29T13:19:44.716Z,100.00
2022-10-29T13:20:47.908Z,100.00
2022-10-29T13:21:51.391Z,100.00
2022-10-29T13:22:55.080Z,100.00
2022-10-29T13:23:58.666Z,100.00
2022-10-29T13:25:02.467Z,100.00
2022-10-29T13:26:05.495Z,100.00
2022-10-29T13:27:09.355Z,100.00
2022-10-29T13:28:12.659Z,100.00
2022-10-29T13:29:19.396Z,100.00
2022-10-29T13:30:23.194Z,100.00
2022-10-29T13:31:27.414Z,100.00
2022-10-29T13:32:30.782Z,100.00
2022-10-29T13:33:34.470Z,100.00
2022-10-29T13:34:37.859Z,100.00
2022-10-29T13:35:41.572Z,100.00
2022-10-29T13:36:45.254Z,100.00
2022-10-29T13:37:48.925Z,100.00
2022-10-29T13:39:05.618Z,100.00
2022-10-29T13:39:57.470Z,100.00
2022-10-29T13:41:01.367Z,100.00
2022-10-29T13:42:05.255Z,100.00
2022-10-29T13:43:08.756Z,100.00
2022-10-29T13:44:12.133Z,100.00
2022-10-29T13:45:15.510Z,100.00